Time;durP1;ratioP1;P1;durP2;ratioP2;P2;SDS_P1;SDS_P2;PMS_P1;PMS_P2;Temp;Humidity;BMP_temperature;BMP_pressure;BME280_temperature;BME280_humidity;BME280_pressure;Samples;Min_cycle;Max_cycle;Signal;HPM_P1;HPM_P2
2023/07/27 00:00:51;;;;;;;6.15;4.95;;;;;;;25.26;100.00;99446.88;5072094;28;20021;-75
2023/07/27 00:03:17;;;;;;;7.50;5.43;;;;;;;25.54;100.00;99460.66;5053768;28;20036;-74
2023/07/27 00:05:42;;;;;;;8.98;4.90;;;;;;;25.61;100.00;99474.72;5071680;28;20032;-74
2023/07/27 00:08:08;;;;;;;8.02;4.72;;;;;;;24.81;100.00;99417.47;5054291;28;20036;-75
2023/07/27 00:10:33;;;;;;;8.15;4.95;;;;;;;25.11;100.00;99442.34;5071369;28;20033;-74
2023/07/27 00:12:58;;;;;;;7.15;4.75;;;;;;;24.81;100.00;99449.53;5071761;28;20056;-74
2023/07/27 00:15:24;;;;;;;8.88;5.35;;;;;;;25.38;100.00;99492.53;5071291;28;20035;-74
2023/07/27 00:17:49;;;;;;;6.45;4.95;;;;;;;25.24;100.00;99442.78;5071568;28;20029;-73
2023/07/27 00:20:15;;;;;;;7.85;4.88;;;;;;;25.15;100.00;99485.31;5071251;28;20031;-75
2023/07/27 00:22:40;;;;;;;6.60;4.38;;;;;;;24.99;100.00;99470.34;5071051;28;20033;-74
2023/07/27 00:25:06;;;;;;;5.53;4.82;;;;;;;25.12;100.00;99459.56;5071513;28;20051;-74
2023/07/27 00:27:31;;;;;;;7.40;5.10;;;;;;;25.00;100.00;99492.00;5071268;28;20493;-73
2023/07/27 00:29:57;;;;;;;7.53;5.25;;;;;;;25.43;100.00;99520.78;5071025;28;20046;-74
2023/07/27 00:32:22;;;;;;;7.72;4.70;;;;;;;25.06;100.00;99504.44;5053278;28;20530;-75
2023/07/27 00:34:51;;;;;;;4.60;4.10;;;;;;;24.62;100.00;99435.78;5071338;28;20573;-73
2023/07/27 00:37:16;;;;;;;6.43;4.50;;;;;;;25.04;100.00;99514.16;5053327;28;20033;-75
2023/07/27 00:39:42;;;;;;;7.70;4.85;;;;;;;25.16;100.00;99492.97;5053151;28;20090;-73
2023/07/27 00:42:07;;;;;;;6.93;4.38;;;;;;;24.76;100.00;99474.34;5070620;28;20036;-72
2023/07/27 00:44:33;;;;;;;6.25;4.28;;;;;;;24.87;100.00;99471.53;5070704;28;20450;-73
2023/07/27 00:46:58;;;;;;;6.00;4.57;;;;;;;24.72;100.00;99446.94;5070752;28;20043;-74
2023/07/27 00:49:24;;;;;;;7.22;4.13;;;;;;;24.27;100.00;99415.69;5053297;28;20039;-74
2023/07/27 00:51:50;;;;;;;7.07;4.07;;;;;;;24.23;100.00;99383.16;5071115;28;20115;-72
2023/07/27 00:54:16;;;;;;;6.07;4.20;;;;;;;24.69;100.00;99444.63;5053241;28;20396;-74
2023/07/27 00:56:42;;;;;;;6.68;4.28;;;;;;;24.09;100.00;99370.63;5071014;28;20033;-74
2023/07/27 00:59:08;;;;;;;6.95;4.30;;;;;;;24.50;100.00;99382.34;5070409;28;20095;-73
2023/07/27 01:01:34;;;;;;;7.55;4.50;;;;;;;24.31;100.00;99396.25;5071103;28;20040;-74
2023/07/27 01:04:00;;;;;;;6.03;4.22;;;;;;;24.72;100.00;99410.53;5053121;28;20033;-74
2023/07/27 01:06:25;;;;;;;9.27;4.50;;;;;;;24.59;100.00;99394.44;5071516;28;20525;-74
2023/07/27 01:08:54;;;;;;;8.57;4.50;;;;;;;24.31;100.00;99361.63;5070703;28;20024;-73
2023/07/27 01:11:28;;;;;;;6.60;4.30;;;;;;;24.55;100.00;99425.13;5070857;28;20024;-74
2023/07/27 01:13:56;;;;;;;4.95;4.10;;;;;;;24.46;100.00;99396.59;5070809;28;20040;-73
2023/07/27 01:16:28;;;;;;;8.23;4.32;;;;;;;23.68;100.00;99283.56;5070749;28;20040;-73
2023/07/27 01:19:09;;;;;;;7.47;4.13;;;;;;;24.51;100.00;99392.59;5053161;28;20508;-74
2023/07/27 01:21:45;;;;;;;4.88;3.67;;;;;;;24.22;100.00;99341.72;5070649;28;20032;-73
2023/07/27 01:24:41;;;;;;;5.13;3.85;;;;;;;23.78;100.00;99305.13;5070723;28;20035;-74
2023/07/27 01:27:56;;;;;;;5.28;3.85;;;;;;;24.35;100.00;99394.16;5070649;28;20520;-73
2023/07/27 01:30:27;;;;;;;5.80;3.75;;;;;;;23.86;100.00;99372.75;4969773;28;20027;-73
2023/07/27 01:33:10;;;;;;;6.43;3.50;;;;;;;24.03;100.00;99368.59;5063334;28;20509;-73
2023/07/27 01:35:48;;;;;;;6.50;3.67;;;;;;;24.28;100.00;99408.72;5070941;28;20028;-73
2023/07/27 01:38:13;;;;;;;4.78;3.58;;;;;;;23.75;100.00;99365.09;5052920;28;20148;-73
2023/07/27 01:40:40;;;;;;;4.78;3.33;;;;;;;23.95;100.00;99394.44;5052823;28;20542;-73
2023/07/27 01:43:07;;;;;;;8.65;3.55;;;;;;;24.07;100.00;99417.53;5070910;28;20063;-73
2023/07/27 01:45:32;;;;;;;4.65;3.67;;;;;;;24.04;100.00;99453.38;5070496;28;20426;-73
2023/07/27 01:47:59;;;;;;;5.60;3.65;;;;;;;24.19;100.00;99454.56;5070690;28;20028;-73
2023/07/27 01:50:27;;;;;;;9.90;3.78;;;;;;;24.16;100.00;99467.00;5070536;28;20491;-73
2023/07/27 01:52:54;;;;;;;6.43;3.80;;;;;;;24.20;100.00;99461.41;5070756;28;20033;-74
2023/07/27 01:55:22;;;;;;;6.20;3.60;;;;;;;23.95;100.00;99428.19;5052226;28;20418;-73
2023/07/27 01:57:49;;;;;;;4.05;3.65;;;;;;;23.82;100.00;99405.16;5070660;28;20063;-73
2023/07/27 02:00:16;;;;;;;5.63;3.90;;;;;;;24.09;100.00;99448.56;5054188;28;20036;-72
2023/07/27 02:02:44;;;;;;;4.82;3.80;;;;;;;23.80;100.00;99408.84;5056001;28;20029;-72
2023/07/27 02:05:10;;;;;;;5.38;3.97;;;;;;;23.88;100.00;99388.19;5053951;28;20878;-74
2023/07/27 02:07:36;;;;;;;4.75;3.90;;;;;;;23.86;100.00;99423.84;5053796;28;20033;-74
2023/07/27 02:10:01;;;;;;;6.07;3.90;;;;;;;24.15;100.00;99447.19;5053289;28;20426;-74
2023/07/27 02:12:32;;;;;;;5.18;3.45;;;;;;;24.06;100.00;99456.66;5053932;28;20078;-74
2023/07/27 02:15:05;;;;;;;4.07;3.50;;;;;;;23.86;100.00;99462.81;5054082;28;20032;-75
2023/07/27 02:17:51;;;;;;;5.57;4.00;;;;;;;23.73;100.00;99400.78;5036231;28;20041;-74
2023/07/27 02:20:20;;;;;;;4.93;3.92;;;;;;;23.88;100.00;99466.09;5058241;28;20043;-74
2023/07/27 02:22:47;;;;;;;4.40;3.72;;;;;;;23.96;100.00;99468.81;5054113;28;20032;-75
2023/07/27 02:25:13;;;;;;;5.00;4.03;;;;;;;23.42;100.00;99425.28;5054173;28;20502;-76
2023/07/27 02:27:38;;;;;;;5.65;3.92;;;;;;;23.94;100.00;99484.53;5053792;28;20079;-73
2023/07/27 02:30:05;;;;;;;6.57;3.90;;;;;;;23.35;100.00;99400.88;5035174;28;20039;-73
2023/07/27 02:32:30;;;;;;;6.95;3.75;;;;;;;23.34;100.00;99403.56;5053789;28;20107;-74
2023/07/27 02:34:56;;;;;;;4.35;3.78;;;;;;;23.81;100.00;99473.63;5040939;28;20072;-73
2023/07/27 02:37:22;;;;;;;6.78;3.88;;;;;;;23.82;100.00;99484.81;5053452;28;20040;-74
2023/07/27 02:39:47;;;;;;;3.97;3.58;;;;;;;23.39;100.00;99451.53;5053281;28;20037;-74
2023/07/27 02:42:12;;;;;;;5.78;4.10;;;;;;;23.36;100.00;99445.78;5040612;28;20071;-73
2023/07/27 02:44:38;;;;;;;4.75;3.75;;;;;;;23.52;100.00;99452.06;5075633;28;20120;-75
2023/07/27 02:47:03;;;;;;;6.45;3.75;;;;;;;23.66;100.00;99523.50;5057638;28;20041;-74
2023/07/27 02:49:29;;;;;;;6.28;3.17;;;;;;;23.07;100.00;99417.22;5052839;28;20094;-77
2023/07/27 02:51:54;;;;;;;5.05;3.78;;;;;;;23.49;100.00;99467.09;5041958;28;20036;-76
2023/07/27 02:54:20;;;;;;;5.20;3.38;;;;;;;23.81;100.00;99516.97;5073828;28;20037;-75
2023/07/27 02:56:45;;;;;;;4.90;3.60;;;;;;;23.35;100.00;99452.75;5072563;28;20048;-74
2023/07/27 02:59:10;;;;;;;5.97;3.35;;;;;;;23.81;100.00;99533.34;5072642;28;20033;-74
2023/07/27 03:01:36;;;;;;;4.20;3.20;;;;;;;23.43;100.00;99481.44;5053408;28;20086;-72
2023/07/27 03:04:02;;;;;;;4.95;3.25;;;;;;;23.51;100.00;99502.31;5072051;28;20032;-74
2023/07/27 03:06:27;;;;;;;6.70;3.95;;;;;;;23.65;100.00;99491.53;5054158;28;20027;-73
2023/07/27 03:08:53;;;;;;;6.70;3.88;;;;;;;23.27;100.00;99470.75;5054426;28;20123;-74
2023/07/27 03:11:19;;;;;;;8.50;3.72;;;;;;;23.63;100.00;99493.44;5071170;28;20474;-72
2023/07/27 03:13:44;;;;;;;4.68;3.70;;;;;;;23.33;100.00;99467.66;5054640;28;20152;-73
2023/07/27 03:16:09;;;;;;;5.47;3.70;;;;;;;23.70;100.00;99493.72;5071902;28;20035;-73
2023/07/27 03:18:35;;;;;;;6.50;3.20;;;;;;;23.97;100.00;99559.59;5044086;28;20123;-73
2023/07/27 03:21:04;;;;;;;5.97;3.00;;;;;;;23.37;100.00;99494.97;5052241;28;20033;-74
2023/07/27 03:23:30;;;;;;;4.78;3.13;;;;;;;23.68;100.00;99501.66;5043448;28;20086;-73
2023/07/27 03:25:56;;;;;;;5.50;3.63;;;;;;;24.14;100.00;99560.69;5069857;28;20024;-72
2023/07/27 03:28:21;;;;;;;3.97;2.95;;;;;;;23.82;100.00;99508.19;5034616;28;20040;-73
2023/07/27 03:30:46;;;;;;;5.68;3.10;;;;;;;24.21;100.00;99579.97;5052251;28;20484;-76
2023/07/27 03:33:12;;;;;;;7.53;2.50;;;;;;;23.92;100.00;99587.75;5053120;28;20536;-75
2023/07/27 03:35:38;;;;;;;3.22;2.60;;;;;;;23.96;100.00;99603.88;5052919;28;20025;-75
2023/07/27 03:38:03;;;;;;;5.05;2.25;;;;;;;24.01;100.00;99617.28;5052589;28;20037;-75
2023/07/27 03:40:29;;;;;;;3.55;1.85;;;;;;;23.40;100.00;99575.13;5051925;28;20163;-74
2023/07/27 03:42:54;;;;;;;7.93;1.77;;;;;;;23.63;100.00;99599.09;5052238;28;20514;-75
2023/07/27 03:45:20;;;;;;;2.20;1.80;;;;;;;23.09;100.00;99542.41;5051742;28;20052;-74
2023/07/27 03:47:46;;;;;;;4.07;1.77;;;;;;;23.97;100.00;99652.28;5056017;28;20534;-76
2023/07/27 03:50:12;;;;;;;4.38;2.00;;;;;;;23.77;100.00;99663.63;5070997;28;20483;-73
2023/07/27 03:52:38;;;;;;;5.72;2.30;;;;;;;23.74;100.00;99658.66;5071704;28;20031;-72
2023/07/27 03:55:04;;;;;;;2.88;1.73;;;;;;;23.81;100.00;99680.56;5071349;28;20044;-71
2023/07/27 03:57:29;;;;;;;3.92;2.17;;;;;;;24.00;100.00;99683.19;5071019;28;20040;-71
2023/07/27 03:59:55;;;;;;;6.32;1.90;;;;;;;23.71;100.00;99657.16;5071285;28;20403;-72
2023/07/27 04:02:22;;;;;;;2.45;1.95;;;;;;;23.64;100.00;99643.09;5035436;28;20029;-71
2023/07/27 04:04:48;;;;;;;4.97;2.00;;;;;;;24.12;100.00;99702.09;5033463;28;20474;-73
2023/07/27 04:07:13;;;;;;;3.88;2.13;;;;;;;23.79;100.00;99654.72;5051207;28;20040;-73
2023/07/27 04:09:39;;;;;;;4.68;2.22;;;;;;;23.62;100.00;99693.47;5048447;28;20075;-72
2023/07/27 04:12:05;;;;;;;3.50;2.20;;;;;;;23.58;100.00;99711.09;5051968;28;20052;-71
2023/07/27 04:14:30;;;;;;;4.85;2.58;;;;;;;23.96;100.00;99738.97;5059677;28;20032;-69
2023/07/27 04:16:55;;;;;;;2.78;2.20;;;;;;;23.66;100.00;99708.69;5058425;28;20036;-72
2023/07/27 04:19:21;;;;;;;3.67;2.35;;;;;;;24.16;100.00;99708.66;5032944;28;20111;-71
2023/07/27 04:21:46;;;;;;;3.92;2.40;;;;;;;23.32;100.00;99645.03;5031792;28;20060;-70
2023/07/27 04:24:12;;;;;;;2.22;1.95;;;;;;;23.73;100.00;99717.56;5053593;28;20462;-76
2023/07/27 04:26:37;;;;;;;4.20;1.90;;;;;;;23.35;100.00;99738.22;5052014;28;20032;-71
2023/07/27 04:29:02;;;;;;;4.63;1.92;;;;;;;23.36;100.00;99729.47;5050225;28;20087;-69
2023/07/27 04:31:28;;;;;;;3.85;1.80;;;;;;;23.50;100.00;99715.31;5032118;28;20029;-70
2023/07/27 04:33:54;;;;;;;4.22;1.88;;;;;;;23.17;100.00;99693.03;5031824;28;20032;-70
2023/07/27 04:36:20;;;;;;;3.47;1.90;;;;;;;22.95;100.00;99636.13;5050808;28;20108;-70
2023/07/27 04:38:45;;;;;;;3.95;1.90;;;;;;;23.34;100.00;99715.78;5049950;28;20025;-73
2023/07/27 04:41:11;;;;;;;2.30;1.60;;;;;;;22.91;100.00;99632.97;5051485;28;20466;-75
2023/07/27 04:43:36;;;;;;;2.13;1.70;;;;;;;23.25;100.00;99659.47;5051381;28;20028;-74
2023/07/27 04:46:01;;;;;;;2.83;1.65;;;;;;;23.51;100.00;99701.38;5051159;28;20581;-75
2023/07/27 04:48:27;;;;;;;2.55;1.55;;;;;;;23.54;100.00;99707.13;5050852;28;20040;-74
2023/07/27 04:50:52;;;;;;;3.70;1.60;;;;;;;23.14;100.00;99646.56;5050586;28;20040;-75
2023/07/27 04:53:18;;;;;;;6.95;1.65;;;;;;;23.24;100.00;99668.19;5050120;28;20029;-73
2023/07/27 04:55:43;;;;;;;5.40;1.70;;;;;;;23.26;100.00;99650.72;5050387;28;20070;-74
2023/07/27 04:58:10;;;;;;;3.70;1.45;;;;;;;23.17;100.00;99651.50;5050520;28;20056;-73
2023/07/27 05:00:35;;;;;;;4.90;1.60;;;;;;;23.70;100.00;99706.63;5033082;28;20028;-74
2023/07/27 05:03:00;;;;;;;3.20;1.42;;;;;;;23.52;100.00;99666.69;5050920;28;20044;-74
2023/07/27 05:05:26;;;;;;;2.50;1.60;;;;;;;23.68;100.00;99718.94;5050944;28;20107;-75
2023/07/27 05:07:51;;;;;;;2.92;1.73;;;;;;;22.93;100.00;99619.88;5051014;28;20330;-75
2023/07/27 05:10:17;;;;;;;3.63;2.30;;;;;;;23.41;100.00;99670.22;5051090;28;20443;-75
2023/07/27 05:12:42;;;;;;;3.67;1.83;;;;;;;23.11;100.00;99667.59;5032835;28;20125;-75
2023/07/27 05:15:08;;;;;;;2.25;1.80;;;;;;;23.49;100.00;99724.88;5051187;28;20033;-76
2023/07/27 05:17:33;;;;;;;2.75;1.70;;;;;;;23.24;100.00;99663.81;5050421;28;20032;-74
2023/07/27 05:19:59;;;;;;;2.90;1.70;;;;;;;23.22;100.00;99685.66;5032962;28;20025;-75
2023/07/27 05:22:24;;;;;;;5.88;1.85;;;;;;;23.03;100.00;99693.34;5033193;28;20035;-75
2023/07/27 05:24:49;;;;;;;3.83;2.03;;;;;;;23.30;100.00;99761.09;5050726;28;20396;-75
2023/07/27 05:27:15;;;;;;;2.63;1.65;;;;;;;23.21;100.00;99738.50;5051158;28;20123;-76
2023/07/27 05:29:42;;;;;;;2.05;1.52;;;;;;;22.90;100.00;99752.38;5050634;28;20623;-75
2023/07/27 05:32:08;;;;;;;5.70;1.73;;;;;;;23.11;100.00;99771.38;5050836;28;20025;-73
2023/07/27 05:34:34;;;;;;;3.38;1.58;;;;;;;22.71;100.00;99778.16;5051621;28;20033;-73
2023/07/27 05:37:00;;;;;;;2.47;1.40;;;;;;;22.86;100.00;99854.69;5036970;28;20423;-73
2023/07/27 05:39:25;;;;;;;3.22;1.58;;;;;;;22.71;100.00;99830.00;5054256;28;20037;-72
2023/07/27 05:41:51;;;;;;;3.42;1.80;;;;;;;23.19;100.00;99839.81;5036534;28;20037;-73
2023/07/27 05:44:16;;;;;;;4.88;2.08;;;;;;;22.41;100.00;99755.50;5054404;28;20111;-74
2023/07/27 05:46:41;;;;;;;3.67;1.70;;;;;;;23.08;100.00;99857.19;5054460;28;20156;-74
2023/07/27 05:49:07;;;;;;;3.60;1.70;;;;;;;22.50;100.00;99798.84;5054102;28;20541;-73
2023/07/27 05:51:32;;;;;;;11.48;2.78;;;;;;;21.62;100.00;99724.69;5054727;28;20021;-75
2023/07/27 05:53:58;;;;;;;5.28;2.47;;;;;;;22.03;100.00;99757.72;5055438;28;20025;-76
2023/07/27 05:56:23;;;;;;;7.65;2.17;;;;;;;22.04;100.00;99591.06;5056157;28;20063;-75
2023/07/27 05:58:48;;;;;;;7.32;2.75;;;;;;;21.40;100.00;99554.78;5055988;28;20408;-74
2023/07/27 06:01:16;;;;;;;8.10;2.05;;;;;;;21.22;100.00;99442.44;5049900;28;20029;-75
2023/07/27 06:03:42;;;;;;;7.13;2.28;;;;;;;21.60;100.00;99416.03;5049644;28;20032;-74
2023/07/27 06:06:07;;;;;;;7.05;2.22;;;;;;;21.63;100.00;99459.78;5054779;28;20033;-74
2023/07/27 06:08:33;;;;;;;4.20;1.48;;;;;;;22.17;100.00;99524.34;5054373;28;20037;-74
2023/07/27 06:11:04;;;;;;;5.15;1.65;;;;;;;21.32;100.00;99483.91;5036556;28;20029;-74
2023/07/27 06:13:30;;;;;;;4.28;1.50;;;;;;;21.19;100.00;99590.09;5054629;28;20029;-73
2023/07/27 06:15:55;;;;;;;2.42;1.35;;;;;;;21.30;100.00;99620.28;5053590;28;20111;-74
2023/07/27 06:18:21;;;;;;;7.88;1.60;;;;;;;21.26;100.00;99645.56;5053816;28;20139;-74
2023/07/27 06:20:46;;;;;;;1.20;1.10;;;;;;;21.24;100.00;99624.16;5054115;28;20442;-75
2023/07/27 06:23:11;;;;;;;2.80;1.58;;;;;;;21.07;100.00;99622.06;5053391;28;20056;-74
2023/07/27 06:25:42;;;;;;;2.35;1.08;;;;;;;21.30;100.00;99688.34;5053844;28;20028;-74
2023/07/27 06:28:08;;;;;;;2.03;1.17;;;;;;;21.08;100.00;99662.47;5053658;28;20021;-72
2023/07/27 06:30:38;;;;;;;2.00;1.23;;;;;;;21.44;100.00;99714.00;5052315;28;20106;-73
2023/07/27 06:33:04;;;;;;;2.40;1.02;;;;;;;21.36;100.00;99702.56;5035526;28;20104;-73
2023/07/27 06:35:29;;;;;;;1.33;1.23;;;;;;;21.58;100.00;99712.91;5035566;28;20035;-73
2023/07/27 06:37:55;;;;;;;2.00;1.17;;;;;;;21.22;100.00;99708.81;5035919;28;20115;-74
2023/07/27 06:40:20;;;;;;;1.20;0.90;;;;;;;21.08;100.00;99695.25;5053288;28;20044;-73
2023/07/27 06:42:46;;;;;;;2.30;1.27;;;;;;;21.43;100.00;99672.72;5053445;28;20142;-73
2023/07/27 06:45:11;;;;;;;2.00;1.42;;;;;;;21.18;100.00;99724.66;5034403;28;20032;-74
2023/07/27 06:47:37;;;;;;;1.65;1.10;;;;;;;21.54;100.00;99758.09;5053840;28;20120;-73
2023/07/27 06:50:03;;;;;;;1.45;1.23;;;;;;;21.53;100.00;99704.72;5035683;28;20039;-74
2023/07/27 06:52:28;;;;;;;3.15;1.75;;;;;;;21.91;100.00;99751.75;5052407;28;20040;-73
2023/07/27 06:54:57;;;;;;;4.30;2.40;;;;;;;21.63;100.00;99739.25;5035009;28;20487;-73
2023/07/27 06:57:25;;;;;;;3.75;2.00;;;;;;;21.41;100.00;99664.25;5035161;28;20422;-75
2023/07/27 06:59:50;;;;;;;4.72;0.90;;;;;;;21.24;100.00;99673.31;5052602;28;20060;-76
2023/07/27 07:02:16;;;;;;;1.77;1.20;;;;;;;21.51;100.00;99688.47;5053247;28;20507;-76
2023/07/27 07:04:41;;;;;;;1.75;1.20;;;;;;;21.92;100.00;99734.44;5034940;28;20037;-75
2023/07/27 07:07:07;;;;;;;3.10;1.55;;;;;;;21.56;100.00;99674.22;5053301;28;20037;-76
2023/07/27 07:09:35;;;;;;;2.78;1.00;;;;;;;21.87;100.00;99726.22;5053633;28;20435;-75
2023/07/27 07:12:01;;;;;;;1.25;1.00;;;;;;;21.90;100.00;99715.63;5055028;28;20044;-74
2023/07/27 07:14:27;;;;;;;3.78;2.30;;;;;;;21.86;100.00;99730.56;5073186;28;20154;-75
2023/07/27 07:16:52;;;;;;;3.92;1.70;;;;;;;21.99;100.00;99733.00;5072792;28;20057;-75
2023/07/27 07:19:17;;;;;;;1.52;1.05;;;;;;;22.05;100.00;99732.53;5072635;28;20104;-75
2023/07/27 07:21:43;;;;;;;1.58;1.05;;;;;;;22.09;100.00;99718.38;5053480;28;20052;-75
2023/07/27 07:24:08;;;;;;;3.13;1.85;;;;;;;21.82;100.00;99630.81;5072396;28;20089;-75
2023/07/27 07:26:33;;;;;;;1.00;0.90;;;;;;;22.01;100.00;99726.78;5071786;28;20032;-74
2023/07/27 07:28:59;;;;;;;3.35;1.13;;;;;;;21.27;100.00;99659.31;5072463;28;20032;-75
2023/07/27 07:31:24;;;;;;;2.25;1.10;;;;;;;21.85;100.00;99710.78;5072595;28;20024;-74
2023/07/27 07:33:50;;;;;;;3.22;2.10;;;;;;;22.01;100.00;99718.16;5072772;28;20036;-76
2023/07/27 07:36:15;;;;;;;2.30;1.80;;;;;;;21.91;100.00;99668.88;5072754;28;20056;-75
2023/07/27 07:38:41;;;;;;;3.85;1.08;;;;;;;21.53;100.00;99697.75;5054411;28;20422;-74
2023/07/27 07:41:06;;;;;;;1.60;1.10;;;;;;;21.45;100.00;99715.63;5054381;28;20036;-74
2023/07/27 07:43:32;;;;;;;3.75;1.20;;;;;;;21.69;100.00;99696.56;5059356;28;20036;-74
2023/07/27 07:45:57;;;;;;;2.53;1.00;;;;;;;21.39;100.00;99702.34;5052559;28;20052;-74
2023/07/27 07:48:23;;;;;;;1.38;0.90;;;;;;;21.51;100.00;99680.72;5033999;28;20029;-74
2023/07/27 07:50:50;;;;;;;2.47;1.40;;;;;;;21.45;100.00;99653.53;5034908;28;20029;-76
2023/07/27 07:53:16;;;;;;;2.67;1.30;;;;;;;21.02;100.00;99613.81;5034658;28;20056;-73
2023/07/27 07:55:41;;;;;;;2.47;1.20;;;;;;;21.85;100.00;99705.63;5034774;28;20570;-75
2023/07/27 07:58:07;;;;;;;4.05;1.00;;;;;;;21.76;100.00;99716.66;5059762;28;20120;-74
2023/07/27 08:00:32;;;;;;;4.60;1.45;;;;;;;21.44;100.00;99674.34;5072384;28;20430;-75
2023/07/27 08:02:58;;;;;;;2.33;1.20;;;;;;;21.75;100.00;99725.38;5072501;28;20450;-74
2023/07/27 08:05:24;;;;;;;3.95;1.10;;;;;;;22.34;100.00;99737.03;5053980;28;20119;-76
2023/07/27 08:07:50;;;;;;;2.22;1.50;;;;;;;21.91;100.00;99738.78;5072535;28;20132;-74
2023/07/27 08:10:15;;;;;;;2.28;1.10;;;;;;;21.93;100.00;99720.53;5071847;28;20502;-73
2023/07/27 08:12:41;;;;;;;1.95;1.20;;;;;;;22.28;100.00;99739.31;5071996;28;20503;-75
2023/07/27 08:15:07;;;;;;;3.50;1.10;;;;;;;22.44;100.00;99750.88;5072005;28;20031;-76
2023/07/27 08:17:32;;;;;;;3.58;0.90;;;;;;;22.43;100.00;99754.44;5071444;28;20040;-75
2023/07/27 08:19:58;;;;;;;2.75;0.93;;;;;;;22.11;100.00;99758.75;5072075;28;20067;-76
2023/07/27 08:22:24;;;;;;;2.40;0.80;;;;;;;22.31;100.00;99739.06;5071604;28;20032;-73
2023/07/27 08:24:50;;;;;;;1.20;0.80;;;;;;;22.48;100.00;99767.03;5071918;28;20028;-75
2023/07/27 08:27:15;;;;;;;0.98;0.80;;;;;;;22.36;100.00;99749.88;5071629;28;20477;-75
2023/07/27 08:29:41;;;;;;;2.72;1.30;;;;;;;22.95;100.00;99748.47;5071360;28;20040;-74
2023/07/27 08:32:07;;;;;;;4.28;1.30;;;;;;;22.87;100.00;99719.75;5071640;28;20032;-73
2023/07/27 08:34:33;;;;;;;3.80;1.10;;;;;;;22.88;100.00;99746.47;5053671;28;20565;-73
2023/07/27 08:36:58;;;;;;;3.13;1.00;;;;;;;22.99;100.00;99782.75;5071557;28;20134;-77
2023/07/27 08:39:24;;;;;;;4.63;0.80;;;;;;;22.53;100.00;99727.78;5071488;28;20410;-73
2023/07/27 08:41:50;;;;;;;1.05;0.70;;;;;;;23.16;100.00;99831.47;5070673;28;20029;-73
2023/07/27 08:44:16;;;;;;;3.58;0.95;;;;;;;23.10;100.00;99826.78;5071540;28;20032;-74
2023/07/27 08:46:41;;;;;;;2.97;0.90;;;;;;;23.19;100.00;99836.41;5071615;28;20052;-74
2023/07/27 08:49:13;;;;;;;2.55;0.90;;;;;;;23.22;100.00;99825.75;5071194;28;20567;-75
2023/07/27 08:51:43;;;;;;;0.98;0.60;;;;;;;23.05;100.00;99790.03;5053312;28;20066;-75
2023/07/27 08:54:09;;;;;;;4.75;0.88;;;;;;;23.27;100.00;99852.16;5071456;28;20040;-74
2023/07/27 08:56:34;;;;;;;2.28;1.20;;;;;;;22.85;100.00;99827.13;5070917;28;20033;-75
2023/07/27 08:59:00;;;;;;;1.70;1.27;;;;;;;23.45;100.00;99887.03;5071478;28;20028;-75
2023/07/27 09:01:26;;;;;;;2.25;0.82;;;;;;;23.06;100.00;99835.75;5070962;28;20035;-74
2023/07/27 09:03:51;;;;;;;4.38;1.13;;;;;;;22.90;100.00;99804.22;5070901;28;20469;-74
2023/07/27 09:06:39;;;;;;;1.30;0.70;;;;;;;23.36;100.00;99874.78;5071165;28;20040;-74
2023/07/27 09:09:28;;;;;;;2.10;0.80;;;;;;;23.53;100.00;99879.41;5068059;28;20060;-74
2023/07/27 09:11:54;;;;;;;4.18;1.10;;;;;;;23.48;100.00;99847.81;5070665;28;20635;-74
2023/07/27 09:14:20;;;;;;;5.38;1.27;;;;;;;23.48;100.00;99898.91;5057303;28;20050;-74
2023/07/27 09:16:50;;;;;;;3.67;2.58;;;;;;;23.24;100.00;99861.03;5078073;28;20028;-75
2023/07/27 09:19:18;;;;;;;3.72;2.10;;;;;;;23.28;100.00;99918.69;5090856;28;20031;-74
2023/07/27 09:21:47;;;;;;;2.45;1.40;;;;;;;23.46;100.00;99921.56;5080308;28;20032;-75
2023/07/27 09:24:16;;;;;;;1.38;1.00;;;;;;;23.43;100.00;99911.44;5075265;28;20491;-74
2023/07/27 09:26:53;;;;;;;2.58;1.00;;;;;;;23.30;100.00;99901.22;5075167;28;20037;-73
2023/07/27 09:29:20;;;;;;;1.08;0.63;;;;;;;23.56;100.00;99918.09;5075066;28;20035;-74
2023/07/27 09:31:47;;;;;;;1.90;1.05;;;;;;;23.38;100.00;99852.13;5056669;28;20024;-73
2023/07/27 09:34:13;;;;;;;4.65;0.90;;;;;;;23.60;100.00;99892.69;5074662;28;20039;-76
2023/07/27 09:36:40;;;;;;;2.05;0.77;;;;;;;23.48;100.00;99907.53;5074905;28;20028;-74
2023/07/27 09:39:06;;;;;;;1.73;0.70;;;;;;;23.00;100.00;99847.47;5074737;28;20021;-75
2023/07/27 09:41:31;;;;;;;1.90;0.75;;;;;;;23.37;100.00;99917.16;5074576;28;20413;-73
2023/07/27 09:43:58;;;;;;;4.30;0.93;;;;;;;23.32;100.00;99898.50;5074916;28;20411;-75
2023/07/27 09:46:24;;;;;;;2.13;0.93;;;;;;;23.49;100.00;99929.13;5075140;28;20040;-76
2023/07/27 09:48:49;;;;;;;1.30;0.90;;;;;;;22.95;100.00;99843.59;5075158;28;20036;-75
2023/07/27 09:51:16;;;;;;;3.78;0.80;;;;;;;22.97;100.00;99899.59;5074961;28;20055;-76
2023/07/27 09:53:43;;;;;;;4.88;1.02;;;;;;;23.51;100.00;99969.56;5057052;28;20490;-77
2023/07/27 09:56:10;;;;;;;2.30;0.90;;;;;;;22.72;100.00;99878.34;5074776;28;20344;-76
2023/07/27 09:58:36;;;;;;;2.22;0.80;;;;;;;23.27;100.00;99974.13;5074828;28;20031;-75
2023/07/27 10:01:02;;;;;;;4.85;0.90;;;;;;;22.74;100.00;99910.94;5056486;28;20028;-76
2023/07/27 10:03:27;;;;;;;0.93;0.80;;;;;;;22.90;100.00;99963.25;5074453;28;20548;-75
2023/07/27 10:05:53;;;;;;;1.90;1.05;;;;;;;23.16;100.00;100013.06;5075147;28;20483;-74
2023/07/27 10:08:19;;;;;;;2.58;0.80;;;;;;;23.04;100.00;100001.91;5075301;28;20033;-76
2023/07/27 10:10:46;;;;;;;1.17;0.80;;;;;;;22.70;100.00;99937.25;5075091;28;20028;-77
2023/07/27 10:13:36;;;;;;;2.25;0.80;;;;;;;22.95;100.00;99994.84;5074971;28;20034;-77
2023/07/27 10:16:02;;;;;;;2.05;0.85;;;;;;;22.92;100.00;100009.81;5060192;28;20040;-76
2023/07/27 10:18:28;;;;;;;1.35;0.70;;;;;;;22.51;100.00;99947.38;5074878;28;20035;-77
2023/07/27 10:21:22;;;;;;;3.17;0.90;;;;;;;22.75;100.00;99979.19;5074113;28;20028;-76
2023/07/27 10:24:02;;;;;;;1.42;0.80;;;;;;;22.43;100.00;99972.13;5056540;28;20039;-76
2023/07/27 10:26:46;;;;;;;2.00;0.80;;;;;;;22.78;100.00;100015.28;5056693;28;20178;-77
2023/07/27 10:29:16;;;;;;;2.92;0.85;;;;;;;22.85;100.00;100016.44;5074457;28;20511;-77
2023/07/27 10:31:44;;;;;;;2.20;1.00;;;;;;;22.12;100.00;99946.91;5074329;28;20111;-76
2023/07/27 10:34:17;;;;;;;2.85;1.00;;;;;;;22.07;100.00;99915.34;5074199;28;20035;-77
2023/07/27 10:36:57;;;;;;;1.58;0.98;;;;;;;22.51;100.00;99999.19;5055946;28;20028;-76
2023/07/27 10:39:31;;;;;;;2.40;1.10;;;;;;;22.41;100.00;99957.63;5074272;28;20031;-76
2023/07/27 10:42:08;;;;;;;1.95;0.77;;;;;;;22.30;100.00;99903.22;5056627;28;20028;-77
2023/07/27 10:44:50;;;;;;;1.98;0.82;;;;;;;22.90;100.00;99985.75;5056473;28;20028;-78
2023/07/27 10:47:48;;;;;;;1.33;0.73;;;;;;;22.85;100.00;99999.09;5073596;28;20056;-75
2023/07/27 10:50:13;;;;;;;1.08;0.80;;;;;;;22.65;100.00;99983.44;5073061;28;20079;-74
2023/07/27 10:52:39;;;;;;;0.88;0.75;;;;;;;22.78;100.00;99987.56;5073317;28;20479;-77
2023/07/27 10:55:06;;;;;;;2.15;0.80;;;;;;;22.99;100.00;99969.50;5073647;28;20032;-78
2023/07/27 10:57:33;;;;;;;1.77;0.80;;;;;;;22.73;100.00;99917.09;5055686;28;20098;-78
2023/07/27 10:59:59;;;;;;;3.40;1.00;;;;;;;23.27;100.00;99987.09;5055695;28;20051;-78
2023/07/27 11:02:30;;;;;;;1.17;0.80;;;;;;;23.05;100.00;99974.19;5074102;28;20031;-76
2023/07/27 11:05:02;;;;;;;2.33;0.90;;;;;;;23.49;100.00;99987.06;5056670;28;20028;-78
2023/07/27 11:07:33;;;;;;;1.13;0.90;;;;;;;22.87;100.00;99934.16;5073693;28;20036;-77
2023/07/27 11:10:03;;;;;;;3.47;1.73;;;;;;;23.40;100.00;99925.50;5073601;28;20021;-76
2023/07/27 11:12:28;;;;;;;1.73;1.10;;;;;;;23.60;100.00;99984.41;5073493;28;20025;-71
2023/07/27 11:14:55;;;;;;;1.75;1.10;;;;;;;23.72;100.00;100001.59;5073860;28;20485;-79
2023/07/27 11:17:20;;;;;;;1.38;0.90;;;;;;;23.29;100.00;100005.97;5055884;28;20043;-77
2023/07/27 11:19:46;;;;;;;2.65;1.48;;;;;;;23.49;100.00;100014.78;5073762;28;20028;-77
2023/07/27 11:22:12;;;;;;;2.72;1.30;;;;;;;23.33;100.00;99926.97;5073319;28;20124;-78
2023/07/27 11:24:38;;;;;;;3.72;1.60;;;;;;;23.00;100.00;99914.06;5072940;28;20116;-76